sensor_id;sensor_type;location;lat;lon;timestamp;temperature;humidity
24638;DHT22;12773;50.162;8.548;2022-10-16T00:01:21;16.90;99.90
24638;DHT22;12773;50.162;8.548;2022-10-16T00:04:09;17.10;99.90
24638;DHT22;12773;50.162;8.548;2022-10-16T00:06:56;17.10;99.90
24638;DHT22;12773;50.162;8.548;2022-10-16T00:09:44;17.20;99.90
24638;DHT22;12773;50.162;8.548;2022-10-16T00:12:31;17.30;99.90
24638;DHT22;12773;50.162;8.548;2022-10-16T00:15:18;17.40;99.90
24638;DHT22;12773;50.162;8.548;2022-10-16T00:18:06;17.40;99.90
24638;DHT22;12773;50.162;8.548;2022-10-16T00:20:53;17.40;99.90
24638;DHT22;12773;50.162;8.548;2022-10-16T00:23:41;17.40;99.90
24638;DHT22;12773;50.162;8.548;2022-10-16T00:26:30;17.40;99.90
24638;DHT22;12773;50.162;8.548;2022-10-16T00:29:18;17.40;99.90
24638;DHT22;12773;50.162;8.548;2022-10-16T00:32:05;17.40;99.90
24638;DHT22;12773;50.162;8.548;2022-10-16T00:34:53;17.40;99.90
24638;DHT22;12773;50.162;8.548;2022-10-16T00:37:40;17.50;99.90
24638;DHT22;12773;50.162;8.548;2022-10-16T00:40:28;17.50;99.90
24638;DHT22;12773;50.162;8.548;2022-10-16T00:46:31;17.40;99.90
24638;DHT22;12773;50.162;8.548;2022-10-16T00:49:15;17.20;99.90
24638;DHT22;12773;50.162;8.548;2022-10-16T00:52:02;17.10;99.90
24638;DHT22;12773;50.162;8.548;2022-10-16T00:54:50;17.00;99.90
24638;DHT22;12773;50.162;8.548;2022-10-16T00:57:40;17.10;99.90
24638;DHT22;12773;50.162;8.548;2022-10-16T01:00:28;17.10;99.90
24638;DHT22;12773;50.162;8.548;2022-10-16T01:03:27;17.10;99.90
24638;DHT22;12773;50.162;8.548;2022-10-16T01:06:29;17.10;99.90
24638;DHT22;12773;50.162;8.548;2022-10-16T01:09:27;17.20;99.90
24638;DHT22;12773;50.162;8.548;2022-10-16T01:12:31;17.20;99.90
24638;DHT22;12773;50.162;8.548;2022-10-16T01:15:14;17.20;99.90
24638;DHT22;12773;50.162;8.548;2022-10-16T01:18:07;17.20;99.90
24638;DHT22;12773;50.162;8.548;2022-10-16T01:21:10;17.20;99.90
24638;DHT22;12773;50.162;8.548;2022-10-16T01:30:18;17.10;99.90
24638;DHT22;12773;50.162;8.548;2022-10-16T01:33:20;17.10;99.90
24638;DHT22;12773;50.162;8.548;2022-10-16T01:36:13;17.10;99.90
24638;DHT22;12773;50.162;8.548;2022-10-16T01:39:02;17.00;99.90
24638;DHT22;12773;50.162;8.548;2022-10-16T01:41:54;17.00;99.90
24638;DHT22;12773;50.162;8.548;2022-10-16T01:44:41;17.00;99.90
24638;DHT22;12773;50.162;8.548;2022-10-16T01:47:31;16.90;99.90
24638;DHT22;12773;50.162;8.548;2022-10-16T01:50:20;17.00;99.90
24638;DHT22;12773;50.162;8.548;2022-10-16T01:53:11;17.00;99.90
24638;DHT22;12773;50.162;8.548;2022-10-16T01:56:00;17.00;99.90
24638;DHT22;12773;50.162;8.548;2022-10-16T01:58:53;17.10;99.90
24638;DHT22;12773;50.162;8.548;2022-10-16T02:01:43;17.10;99.90
24638;DHT22;12773;50.162;8.548;2022-10-16T02:04:34;17.10;99.90
24638;DHT22;12773;50.162;8.548;2022-10-16T02:07:22;17.10;99.90
24638;DHT22;12773;50.162;8.548;2022-10-16T02:10:10;17.00;99.90
24638;DHT22;12773;50.162;8.548;2022-10-16T02:15:57;17.10;99.90
24638;DHT22;12773;50.162;8.548;2022-10-16T02:18:45;17.00;99.90
24638;DHT22;12773;50.162;8.548;2022-10-16T02:21:44;16.90;99.90
24638;DHT22;12773;50.162;8.548;2022-10-16T02:24:43;16.90;99.90
24638;DHT22;12773;50.162;8.548;2022-10-16T02:27:33;16.90;99.90
24638;DHT22;12773;50.162;8.548;2022-10-16T02:30:36;17.00;99.90
24638;DHT22;12773;50.162;8.548;2022-10-16T02:33:25;17.10;99.90
24638;DHT22;12773;50.162;8.548;2022-10-16T02:36:14;17.10;99.90
24638;DHT22;12773;50.162;8.548;2022-10-16T02:39:02;17.00;99.90
24638;DHT22;12773;50.162;8.548;2022-10-16T02:41:51;17.00;99.90
24638;DHT22;12773;50.162;8.548;2022-10-16T02:44:38;16.90;99.90
24638;DHT22;12773;50.162;8.548;2022-10-16T02:47:26;16.80;99.90
24638;DHT22;12773;50.162;8.548;2022-10-16T02:50:13;16.90;99.90
24638;DHT22;12773;50.162;8.548;2022-10-16T02:53:01;17.00;99.90
24638;DHT22;12773;50.162;8.548;2022-10-16T02:55:48;17.00;99.90
24638;DHT22;12773;50.162;8.548;2022-10-16T02:58:36;17.00;99.90
24638;DHT22;12773;50.162;8.548;2022-10-16T03:01:23;17.10;99.90
24638;DHT22;12773;50.162;8.548;2022-10-16T03:04:11;17.00;99.90
24638;DHT22;12773;50.162;8.548;2022-10-16T03:06:58;17.00;99.90
24638;DHT22;12773;50.162;8.548;2022-10-16T03:09:46;17.00;99.90
24638;DHT22;12773;50.162;8.548;2022-10-16T03:12:33;17.00;99.90
24638;DHT22;12773;50.162;8.548;2022-10-16T03:15:21;17.10;99.90
24638;DHT22;12773;50.162;8.548;2022-10-16T03:18:08;17.20;99.90
24638;DHT22;12773;50.162;8.548;2022-10-16T03:20:55;17.20;99.90
24638;DHT22;12773;50.162;8.548;2022-10-16T03:23:43;17.10;99.90
24638;DHT22;12773;50.162;8.548;2022-10-16T03:26:30;17.00;99.90
24638;DHT22;12773;50.162;8.548;2022-10-16T03:29:17;17.00;99.90
24638;DHT22;12773;50.162;8.548;2022-10-16T03:32:05;16.90;99.90
24638;DHT22;12773;50.162;8.548;2022-10-16T03:34:52;16.80;99.90
24638;DHT22;12773;50.162;8.548;2022-10-16T03:37:40;16.80;99.90
24638;DHT22;12773;50.162;8.548;2022-10-16T03:40:28;16.80;99.90
24638;DHT22;12773;50.162;8.548;2022-10-16T03:43:17;16.70;99.90
24638;DHT22;12773;50.162;8.548;2022-10-16T03:46:04;16.70;99.90
24638;DHT22;12773;50.162;8.548;2022-10-16T03:48:52;16.70;99.90
24638;DHT22;12773;50.162;8.548;2022-10-16T03:51:40;16.80;99.90
24638;DHT22;12773;50.162;8.548;2022-10-16T03:54:27;16.80;99.90
24638;DHT22;12773;50.162;8.548;2022-10-16T03:57:15;16.80;99.90
24638;DHT22;12773;50.162;8.548;2022-10-16T04:00:02;16.80;99.90
24638;DHT22;12773;50.162;8.548;2022-10-16T04:02:50;16.80;99.90
24638;DHT22;12773;50.162;8.548;2022-10-16T04:05:37;16.80;99.90
24638;DHT22;12773;50.162;8.548;2022-10-16T04:08:24;16.90;99.90
24638;DHT22;12773;50.162;8.548;2022-10-16T04:11:12;16.90;99.90
24638;DHT22;12773;50.162;8.548;2022-10-16T04:14:00;17.00;99.90
24638;DHT22;12773;50.162;8.548;2022-10-16T04:16:47;17.00;99.90
24638;DHT22;12773;50.162;8.548;2022-10-16T04:19:35;17.00;99.90
24638;DHT22;12773;50.162;8.548;2022-10-16T04:22:22;17.00;99.90
24638;DHT22;12773;50.162;8.548;2022-10-16T04:25:10;17.00;99.90
24638;DHT22;12773;50.162;8.548;2022-10-16T04:27:58;17.00;99.90
24638;DHT22;12773;50.162;8.548;2022-10-16T04:30:46;17.00;99.90
24638;DHT22;12773;50.162;8.548;2022-10-16T04:33:33;17.10;99.90
24638;DHT22;12773;50.162;8.548;2022-10-16T04:36:21;17.00;99.90
24638;DHT22;12773;50.162;8.548;2022-10-16T04:39:09;17.00;99.90
24638;DHT22;12773;50.162;8.548;2022-10-16T04:41:57;17.10;99.90
24638;DHT22;12773;50.162;8.548;2022-10-16T04:44:44;17.10;99.90
24638;DHT22;12773;50.162;8.548;2022-10-16T04:47:32;17.10;99.90
24638;DHT22;12773;50.162;8.548;2022-10-16T04:50:19;17.20;99.90
24638;DHT22;12773;50.162;8.548;2022-10-16T04:53:06;17.20;99.90
24638;DHT22;12773;50.162;8.548;2022-10-16T04:55:54;17.30;99.90
24638;DHT22;12773;50.162;8.548;2022-10-16T04:58:43;17.40;99.90
24638;DHT22;12773;50.162;8.548;2022-10-16T05:01:31;17.40;99.90
24638;DHT22;12773;50.162;8.548;2022-10-16T05:04:18;17.40;99.90
24638;DHT22;12773;50.162;8.548;2022-10-16T05:07:05;17.40;99.90
24638;DHT22;12773;50.162;8.548;2022-10-16T05:09:53;17.30;99.90
24638;DHT22;12773;50.162;8.548;2022-10-16T05:12:40;17.30;99.90
24638;DHT22;12773;50.162;8.548;2022-10-16T05:15:28;17.30;99.90
24638;DHT22;12773;50.162;8.548;2022-10-16T05:18:34;17.30;99.90
24638;DHT22;12773;50.162;8.548;2022-10-16T05:21:22;17.30;99.90
24638;DHT22;12773;50.162;8.548;2022-10-16T05:24:09;17.30;99.90
24638;DHT22;12773;50.162;8.548;2022-10-16T05:26:56;17.30;99.90
24638;DHT22;12773;50.162;8.548;2022-10-16T05:29:48;17.20;99.90
24638;DHT22;12773;50.162;8.548;2022-10-16T05:32:36;17.30;99.90
24638;DHT22;12773;50.162;8.548;2022-10-16T05:35:23;17.30;99.90
24638;DHT22;12773;50.162;8.548;2022-10-16T05:38:10;17.30;99.90
24638;DHT22;12773;50.162;8.548;2022-10-16T05:40:58;17.40;99.90
24638;DHT22;12773;50.162;8.548;2022-10-16T05:43:45;17.40;99.90
24638;DHT22;12773;50.162;8.548;2022-10-16T05:46:33;17.50;99.90
24638;DHT22;12773;50.162;8.548;2022-10-16T05:49:20;17.50;99.90
24638;DHT22;12773;50.162;8.548;2022-10-16T05:52:08;17.50;99.90
24638;DHT22;12773;50.162;8.548;2022-10-16T05:54:55;17.50;99.90
24638;DHT22;12773;50.162;8.548;2022-10-16T05:57:43;17.60;99.90
24638;DHT22;12773;50.162;8.548;2022-10-16T06:00:30;17.60;99.90
24638;DHT22;12773;50.162;8.548;2022-10-16T06:03:18;17.60;99.90
24638;DHT22;12773;50.162;8.548;2022-10-16T06:06:13;17.50;99.90
24638;DHT22;12773;50.162;8.548;2022-10-16T06:09:01;17.60;99.90
24638;DHT22;12773;50.162;8.548;2022-10-16T06:11:48;17.60;99.90
24638;DHT22;12773;50.162;8.548;2022-10-16T06:14:36;17.50;99.90
24638;DHT22;12773;50.162;8.548;2022-10-16T06:17:23;17.50;99.90
24638;DHT22;12773;50.162;8.548;2022-10-16T06:20:11;17.60;99.90
24638;DHT22;12773;50.162;8.548;2022-10-16T06:22:58;17.60;99.90
24638;DHT22;12773;50.162;8.548;2022-10-16T06:25:46;17.50;99.90
24638;DHT22;12773;50.162;8.548;2022-10-16T06:28:34;17.50;99.90
24638;DHT22;12773;50.162;8.548;2022-10-16T06:31:21;17.50;99.90
24638;DHT22;12773;50.162;8.548;2022-10-16T06:34:10;17.50;99.90
24638;DHT22;12773;50.162;8.548;2022-10-16T06:36:57;17.40;99.90
24638;DHT22;12773;50.162;8.548;2022-10-16T06:39:45;17.40;99.90
24638;DHT22;12773;50.162;8.548;2022-10-16T06:42:32;17.50;99.90
24638;DHT22;12773;50.162;8.548;2022-10-16T06:45:19;17.60;99.90
24638;DHT22;12773;50.162;8.548;2022-10-16T06:48:07;17.70;99.90
24638;DHT22;12773;50.162;8.548;2022-10-16T06:51:02;17.80;99.90
24638;DHT22;12773;50.162;8.548;2022-10-16T06:53:49;17.80;99.90
24638;DHT22;12773;50.162;8.548;2022-10-16T06:56:38;17.80;99.90
24638;DHT22;12773;50.162;8.548;2022-10-16T06:59:26;17.80;99.90
24638;DHT22;12773;50.162;8.548;2022-10-16T07:02:13;17.80;99.90
24638;DHT22;12773;50.162;8.548;2022-10-16T07:05:01;17.90;99.90
24638;DHT22;12773;50.162;8.548;2022-10-16T07:07:48;17.90;99.90
24638;DHT22;12773;50.162;8.548;2022-10-16T07:10:36;17.90;99.90
24638;DHT22;12773;50.162;8.548;2022-10-16T07:13:23;17.80;99.90
24638;DHT22;12773;50.162;8.548;2022-10-16T07:16:18;17.80;99.90
24638;DHT22;12773;50.162;8.548;2022-10-16T07:19:02;17.90;99.90
24638;DHT22;12773;50.162;8.548;2022-10-16T07:21:49;18.00;99.90
24638;DHT22;12773;50.162;8.548;2022-10-16T07:24:37;18.10;99.90
24638;DHT22;12773;50.162;8.548;2022-10-16T07:27:24;18.20;99.90
24638;DHT22;12773;50.162;8.548;2022-10-16T07:30:12;18.30;99.90
24638;DHT22;12773;50.162;8.548;2022-10-16T07:32:59;18.30;99.90
24638;DHT22;12773;50.162;8.548;2022-10-16T07:35:51;18.40;99.90
24638;DHT22;12773;50.162;8.548;2022-10-16T07:38:39;18.20;99.90
24638;DHT22;12773;50.162;8.548;2022-10-16T07:41:26;18.20;99.90
24638;DHT22;12773;50.162;8.548;2022-10-16T07:44:15;18.20;99.90
24638;DHT22;12773;50.162;8.548;2022-10-16T07:47:03;18.30;99.90
24638;DHT22;12773;50.162;8.548;2022-10-16T07:49:50;18.20;99.90
24638;DHT22;12773;50.162;8.548;2022-10-16T07:52:38;18.30;99.90
24638;DHT22;12773;50.162;8.548;2022-10-16T07:55:25;18.40;99.90
24638;DHT22;12773;50.162;8.548;2022-10-16T07:58:12;18.50;99.90
24638;DHT22;12773;50.162;8.548;2022-10-16T08:01:05;18.50;99.90
24638;DHT22;12773;50.162;8.548;2022-10-16T08:03:53;18.60;99.90
24638;DHT22;12773;50.162;8.548;2022-10-16T08:06:41;18.60;99.90
24638;DHT22;12773;50.162;8.548;2022-10-16T08:09:28;18.60;99.90
24638;DHT22;12773;50.162;8.548;2022-10-16T08:12:16;18.60;99.90
24638;DHT22;12773;50.162;8.548;2022-10-16T08:15:03;18.60;99.90
24638;DHT22;12773;50.162;8.548;2022-10-16T08:17:55;18.60;99.90
24638;DHT22;12773;50.162;8.548;2022-10-16T08:20:43;18.70;99.90
24638;DHT22;12773;50.162;8.548;2022-10-16T08:23:30;18.70;99.90
24638;DHT22;12773;50.162;8.548;2022-10-16T08:26:18;18.70;99.90
24638;DHT22;12773;50.162;8.548;2022-10-16T08:29:05;18.70;99.90
24638;DHT22;12773;50.162;8.548;2022-10-16T08:31:53;18.70;99.90
24638;DHT22;12773;50.162;8.548;2022-10-16T08:34:41;18.60;99.90
24638;DHT22;12773;50.162;8.548;2022-10-16T08:37:32;18.60;99.90
24638;DHT22;12773;50.162;8.548;2022-10-16T08:40:30;18.70;99.90
24638;DHT22;12773;50.162;8.548;2022-10-16T08:49:13;18.80;99.90
24638;DHT22;12773;50.162;8.548;2022-10-16T08:52:01;18.90;99.90
24638;DHT22;12773;50.162;8.548;2022-10-16T08:54:50;18.90;99.90
24638;DHT22;12773;50.162;8.548;2022-10-16T08:57:38;18.90;99.90
24638;DHT22;12773;50.162;8.548;2022-10-16T09:00:26;19.00;99.90
24638;DHT22;12773;50.162;8.548;2022-10-16T09:03:37;19.00;99.90
24638;DHT22;12773;50.162;8.548;2022-10-16T09:06:45;19.00;99.90
24638;DHT22;12773;50.162;8.548;2022-10-16T09:12:54;19.10;99.90
24638;DHT22;12773;50.162;8.548;2022-10-16T09:16:15;19.10;99.90
24638;DHT22;12773;50.162;8.548;2022-10-16T09:19:12;19.00;99.90
24638;DHT22;12773;50.162;8.548;2022-10-16T09:22:01;18.70;99.90
24638;DHT22;12773;50.162;8.548;2022-10-16T09:24:49;18.60;99.90
24638;DHT22;12773;50.162;8.548;2022-10-16T09:27:37;18.60;99.90
24638;DHT22;12773;50.162;8.548;2022-10-16T09:30:28;18.70;99.90
24638;DHT22;12773;50.162;8.548;2022-10-16T09:33:19;18.60;99.90
24638;DHT22;12773;50.162;8.548;2022-10-16T09:36:08;18.60;99.90
24638;DHT22;12773;50.162;8.548;2022-10-16T09:39:10;18.50;99.90
24638;DHT22;12773;50.162;8.548;2022-10-16T09:41:59;18.50;99.90
24638;DHT22;12773;50.162;8.548;2022-10-16T09:44:51;18.60;99.90
24638;DHT22;12773;50.162;8.548;2022-10-16T09:47:41;18.60;99.90
24638;DHT22;12773;50.162;8.548;2022-10-16T09:50:29;18.70;99.90
24638;DHT22;12773;50.162;8.548;2022-10-16T09:53:17;19.00;99.90
24638;DHT22;12773;50.162;8.548;2022-10-16T09:56:06;18.80;99.90
24638;DHT22;12773;50.162;8.548;2022-10-16T09:58:59;18.80;99.90
24638;DHT22;12773;50.162;8.548;2022-10-16T10:01:51;18.70;99.90
24638;DHT22;12773;50.162;8.548;2022-10-16T10:04:48;18.70;99.90
24638;DHT22;12773;50.162;8.548;2022-10-16T10:07:32;18.60;99.90
24638;DHT22;12773;50.162;8.548;2022-10-16T10:10:26;18.80;99.90
24638;DHT22;12773;50.162;8.548;2022-10-16T10:13:22;18.90;99.90
24638;DHT22;12773;50.162;8.548;2022-10-16T10:16:10;19.20;99.90
24638;DHT22;12773;50.162;8.548;2022-10-16T10:19:01;19.60;99.90
24638;DHT22;12773;50.162;8.548;2022-10-16T10:21:51;19.70;99.90
24638;DHT22;12773;50.162;8.548;2022-10-16T10:24:38;20.10;99.90
24638;DHT22;12773;50.162;8.548;2022-10-16T10:31:03;20.70;99.90
24638;DHT22;12773;50.162;8.548;2022-10-16T10:33:54;20.70;99.90
24638;DHT22;12773;50.162;8.548;2022-10-16T10:36:41;20.90;99.90
24638;DHT22;12773;50.162;8.548;2022-10-16T10:42:57;20.70;99.90
24638;DHT22;12773;50.162;8.548;2022-10-16T10:45:52;20.60;99.90
24638;DHT22;12773;50.162;8.548;2022-10-16T11:01:54;21.90;99.90
24638;DHT22;12773;50.162;8.548;2022-10-16T11:05:35;21.80;99.90
24638;DHT22;12773;50.162;8.548;2022-10-16T11:08:18;21.70;99.90
24638;DHT22;12773;50.162;8.548;2022-10-16T11:11:10;21.50;99.90
24638;DHT22;12773;50.162;8.548;2022-10-16T11:14:11;21.50;99.90
24638;DHT22;12773;50.162;8.548;2022-10-16T11:17:11;21.50;99.90
24638;DHT22;12773;50.162;8.548;2022-10-16T11:20:03;21.40;99.90
24638;DHT22;12773;50.162;8.548;2022-10-16T11:22:54;21.20;99.90
24638;DHT22;12773;50.162;8.548;2022-10-16T11:25:43;20.80;99.90
24638;DHT22;12773;50.162;8.548;2022-10-16T11:28:34;21.10;99.90
24638;DHT22;12773;50.162;8.548;2022-10-16T11:31:32;21.10;99.90
24638;DHT22;12773;50.162;8.548;2022-10-16T11:34:47;21.20;99.90
24638;DHT22;12773;50.162;8.548;2022-10-16T11:37:35;21.40;99.90
24638;DHT22;12773;50.162;8.548;2022-10-16T11:46:12;21.30;99.90
24638;DHT22;12773;50.162;8.548;2022-10-16T11:49:17;21.40;99.90
24638;DHT22;12773;50.162;8.548;2022-10-16T11:52:07;21.30;99.90
24638;DHT22;12773;50.162;8.548;2022-10-16T11:55:13;21.20;99.90
24638;DHT22;12773;50.162;8.548;2022-10-16T11:58:00;21.10;99.90
24638;DHT22;12773;50.162;8.548;2022-10-16T12:00:58;21.00;99.90
24638;DHT22;12773;50.162;8.548;2022-10-16T12:06:44;21.00;99.90
24638;DHT22;12773;50.162;8.548;2022-10-16T12:09:34;21.30;99.90
24638;DHT22;12773;50.162;8.548;2022-10-16T12:12:45;21.40;99.90
24638;DHT22;12773;50.162;8.548;2022-10-16T12:15:28;21.50;99.90
24638;DHT22;12773;50.162;8.548;2022-10-16T12:18:24;21.50;99.90
24638;DHT22;12773;50.162;8.548;2022-10-16T12:21:13;21.40;99.90
24638;DHT22;12773;50.162;8.548;2022-10-16T12:24:02;21.30;99.90
24638;DHT22;12773;50.162;8.548;2022-10-16T12:26:52;21.20;99.90
24638;DHT22;12773;50.162;8.548;2022-10-16T12:29:41;21.20;99.90
24638;DHT22;12773;50.162;8.548;2022-10-16T12:32:34;21.30;99.90
24638;DHT22;12773;50.162;8.548;2022-10-16T12:35:31;21.30;99.90
24638;DHT22;12773;50.162;8.548;2022-10-16T12:38:30;21.60;99.90
24638;DHT22;12773;50.162;8.548;2022-10-16T12:41:34;21.40;99.90
24638;DHT22;12773;50.162;8.548;2022-10-16T12:44:24;21.20;99.90
24638;DHT22;12773;50.162;8.548;2022-10-16T12:50:28;21.20;99.90
24638;DHT22;12773;50.162;8.548;2022-10-16T12:53:25;21.20;99.90
24638;DHT22;12773;50.162;8.548;2022-10-16T12:56:24;21.30;99.90
24638;DHT22;12773;50.162;8.548;2022-10-16T12:59:26;21.40;99.90
24638;DHT22;12773;50.162;8.548;2022-10-16T13:12:00;21.40;99.90
24638;DHT22;12773;50.162;8.548;2022-10-16T13:15:09;21.40;99.90
24638;DHT22;12773;50.162;8.548;2022-10-16T13:18:09;21.30;99.90
24638;DHT22;12773;50.162;8.548;2022-10-16T13:27:32;21.40;99.90
24638;DHT22;12773;50.162;8.548;2022-10-16T13:30:19;21.40;99.90
24638;DHT22;12773;50.162;8.548;2022-10-16T13:33:17;21.50;99.90
24638;DHT22;12773;50.162;8.548;2022-10-16T13:36:06;21.70;99.90
24638;DHT22;12773;50.162;8.548;2022-10-16T13:42:12;21.80;99.90
24638;DHT22;12773;50.162;8.548;2022-10-16T13:45:00;21.80;99.90
24638;DHT22;12773;50.162;8.548;2022-10-16T13:47:47;21.80;99.90
24638;DHT22;12773;50.162;8.548;2022-10-16T13:50:35;21.90;99.90
24638;DHT22;12773;50.162;8.548;2022-10-16T13:53:22;21.80;99.90
24638;DHT22;12773;50.162;8.548;2022-10-16T13:56:15;21.70;99.90
24638;DHT22;12773;50.162;8.548;2022-10-16T13:59:05;21.80;99.90
24638;DHT22;12773;50.162;8.548;2022-10-16T14:01:55;21.90;99.90
24638;DHT22;12773;50.162;8.548;2022-10-16T14:04:42;21.80;99.90
24638;DHT22;12773;50.162;8.548;2022-10-16T14:07:32;22.00;99.90
24638;DHT22;12773;50.162;8.548;2022-10-16T14:10:22;22.00;99.90
24638;DHT22;12773;50.162;8.548;2022-10-16T14:13:14;22.10;99.90
24638;DHT22;12773;50.162;8.548;2022-10-16T14:16:06;22.20;99.90
24638;DHT22;12773;50.162;8.548;2022-10-16T14:21:48;22.20;99.90
24638;DHT22;12773;50.162;8.548;2022-10-16T14:24:35;22.30;99.90
24638;DHT22;12773;50.162;8.548;2022-10-16T14:30:23;22.20;99.90
24638;DHT22;12773;50.162;8.548;2022-10-16T14:36:16;22.30;99.90
24638;DHT22;12773;50.162;8.548;2022-10-16T14:39:14;22.40;99.90
24638;DHT22;12773;50.162;8.548;2022-10-16T14:41:57;22.30;99.90
24638;DHT22;12773;50.162;8.548;2022-10-16T14:44:45;22.30;99.90
24638;DHT22;12773;50.162;8.548;2022-10-16T14:50:41;22.40;99.90
24638;DHT22;12773;50.162;8.548;2022-10-16T14:53:28;22.40;99.90
24638;DHT22;12773;50.162;8.548;2022-10-16T14:56:18;22.50;99.90
24638;DHT22;12773;50.162;8.548;2022-10-16T14:59:09;22.50;99.90
24638;DHT22;12773;50.162;8.548;2022-10-16T15:01:57;22.50;99.90
24638;DHT22;12773;50.162;8.548;2022-10-16T15:04:44;22.50;99.90
24638;DHT22;12773;50.162;8.548;2022-10-16T15:07:31;22.40;99.90
24638;DHT22;12773;50.162;8.548;2022-10-16T15:10:25;22.40;99.90
24638;DHT22;12773;50.162;8.548;2022-10-16T15:13:11;22.40;99.90
24638;DHT22;12773;50.162;8.548;2022-10-16T15:15:59;22.30;99.90
24638;DHT22;12773;50.162;8.548;2022-10-16T15:18:46;22.30;99.90
24638;DHT22;12773;50.162;8.548;2022-10-16T15:21:34;22.20;99.90
24638;DHT22;12773;50.162;8.548;2022-10-16T15:24:21;22.20;99.90
24638;DHT22;12773;50.162;8.548;2022-10-16T15:27:09;22.20;99.90
24638;DHT22;12773;50.162;8.548;2022-10-16T15:29:56;22.10;99.90
24638;DHT22;12773;50.162;8.548;2022-10-16T15:32:43;22.20;99.90
24638;DHT22;12773;50.162;8.548;2022-10-16T15:35:31;22.20;99.90
24638;DHT22;12773;50.162;8.548;2022-10-16T15:38:20;22.20;99.90
24638;DHT22;12773;50.162;8.548;2022-10-16T15:41:08;22.20;99.90
24638;DHT22;12773;50.162;8.548;2022-10-16T15:43:56;22.10;99.90
24638;DHT22;12773;50.162;8.548;2022-10-16T15:46:43;22.00;99.90
24638;DHT22;12773;50.162;8.548;2022-10-16T15:49:30;21.80;99.90
24638;DHT22;12773;50.162;8.548;2022-10-16T15:52:17;21.80;99.90
24638;DHT22;12773;50.162;8.548;2022-10-16T15:55:09;21.70;99.90
24638;DHT22;12773;50.162;8.548;2022-10-16T15:57:57;21.70;99.90
24638;DHT22;12773;50.162;8.548;2022-10-16T16:00:44;21.60;99.90
24638;DHT22;12773;50.162;8.548;2022-10-16T16:03:32;21.50;99.90
24638;DHT22;12773;50.162;8.548;2022-10-16T16:06:20;21.30;99.90
24638;DHT22;12773;50.162;8.548;2022-10-16T16:09:08;21.30;99.90
24638;DHT22;12773;50.162;8.548;2022-10-16T16:11:55;21.10;99.90
24638;DHT22;12773;50.162;8.548;2022-10-16T16:14:44;21.00;99.90
24638;DHT22;12773;50.162;8.548;2022-10-16T16:17:34;20.90;99.90
24638;DHT22;12773;50.162;8.548;2022-10-16T16:20:22;20.70;99.90
24638;DHT22;12773;50.162;8.548;2022-10-16T16:23:09;20.60;99.90
24638;DHT22;12773;50.162;8.548;2022-10-16T16:28:56;20.60;99.90
24638;DHT22;12773;50.162;8.548;2022-10-16T16:31:43;20.70;99.90
24638;DHT22;12773;50.162;8.548;2022-10-16T16:34:32;20.60;99.90
24638;DHT22;12773;50.162;8.548;2022-10-16T16:37:19;20.70;99.90
24638;DHT22;12773;50.162;8.548;2022-10-16T16:40:06;20.60;99.90
24638;DHT22;12773;50.162;8.548;2022-10-16T16:42:54;20.70;99.90
24638;DHT22;12773;50.162;8.548;2022-10-16T16:45:41;20.70;99.90
24638;DHT22;12773;50.162;8.548;2022-10-16T16:48:28;20.60;99.90
24638;DHT22;12773;50.162;8.548;2022-10-16T16:51:17;20.50;99.90
24638;DHT22;12773;50.162;8.548;2022-10-16T16:54:06;20.40;99.90
24638;DHT22;12773;50.162;8.548;2022-10-16T16:56:54;20.30;99.90
24638;DHT22;12773;50.162;8.548;2022-10-16T16:59:42;20.30;99.90
24638;DHT22;12773;50.162;8.548;2022-10-16T17:02:29;20.30;99.90
24638;DHT22;12773;50.162;8.548;2022-10-16T17:05:17;20.30;99.90
24638;DHT22;12773;50.162;8.548;2022-10-16T17:08:08;20.10;99.90
24638;DHT22;12773;50.162;8.548;2022-10-16T17:10:55;19.90;99.90
24638;DHT22;12773;50.162;8.548;2022-10-16T17:13:43;19.80;99.90
24638;DHT22;12773;50.162;8.548;2022-10-16T17:16:33;19.80;99.90
24638;DHT22;12773;50.162;8.548;2022-10-16T17:19:21;19.80;99.90
24638;DHT22;12773;50.162;8.548;2022-10-16T17:22:08;19.80;99.90
24638;DHT22;12773;50.162;8.548;2022-10-16T17:24:55;19.80;99.90
24638;DHT22;12773;50.162;8.548;2022-10-16T17:27:43;19.70;99.90
24638;DHT22;12773;50.162;8.548;2022-10-16T17:30:31;19.60;99.90
24638;DHT22;12773;50.162;8.548;2022-10-16T17:33:19;19.60;99.90
24638;DHT22;12773;50.162;8.548;2022-10-16T17:36:07;19.50;99.90
24638;DHT22;12773;50.162;8.548;2022-10-16T17:38:58;19.30;99.90
24638;DHT22;12773;50.162;8.548;2022-10-16T17:41:47;19.20;99.90
24638;DHT22;12773;50.162;8.548;2022-10-16T17:44:34;19.10;99.90
24638;DHT22;12773;50.162;8.548;2022-10-16T17:47:22;19.10;99.90
24638;DHT22;12773;50.162;8.548;2022-10-16T17:50:09;19.10;99.90
24638;DHT22;12773;50.162;8.548;2022-10-16T17:52:58;19.10;99.90
24638;DHT22;12773;50.162;8.548;2022-10-16T17:55:45;19.00;99.90
24638;DHT22;12773;50.162;8.548;2022-10-16T17:58:32;18.90;99.90
24638;DHT22;12773;50.162;8.548;2022-10-16T18:01:22;18.80;99.90
24638;DHT22;12773;50.162;8.548;2022-10-16T18:04:13;18.60;99.90
24638;DHT22;12773;50.162;8.548;2022-10-16T18:07:00;18.50;99.90
24638;DHT22;12773;50.162;8.548;2022-10-16T18:09:48;18.40;99.90
24638;DHT22;12773;50.162;8.548;2022-10-16T18:12:37;18.30;99.90
24638;DHT22;12773;50.162;8.548;2022-10-16T18:15:26;18.20;99.90
24638;DHT22;12773;50.162;8.548;2022-10-16T18:18:14;18.00;99.90
24638;DHT22;12773;50.162;8.548;2022-10-16T18:21:03;17.90;99.90
24638;DHT22;12773;50.162;8.548;2022-10-16T18:23:50;18.00;99.90
24638;DHT22;12773;50.162;8.548;2022-10-16T18:26:38;17.80;99.90
24638;DHT22;12773;50.162;8.548;2022-10-16T18:29:26;17.70;99.90
24638;DHT22;12773;50.162;8.548;2022-10-16T18:32:14;17.70;99.90
24638;DHT22;12773;50.162;8.548;2022-10-16T18:35:01;17.70;99.90
24638;DHT22;12773;50.162;8.548;2022-10-16T18:37:48;17.70;99.90
24638;DHT22;12773;50.162;8.548;2022-10-16T18:40:38;17.60;99.90
24638;DHT22;12773;50.162;8.548;2022-10-16T18:43:25;17.40;99.90
24638;DHT22;12773;50.162;8.548;2022-10-16T18:46:20;17.40;99.90
24638;DHT22;12773;50.162;8.548;2022-10-16T18:49:08;17.30;99.90
24638;DHT22;12773;50.162;8.548;2022-10-16T18:51:55;17.20;99.90
24638;DHT22;12773;50.162;8.548;2022-10-16T18:54:43;17.20;99.90
24638;DHT22;12773;50.162;8.548;2022-10-16T18:57:30;17.10;99.90
24638;DHT22;12773;50.162;8.548;2022-10-16T19:00:17;17.10;99.90
24638;DHT22;12773;50.162;8.548;2022-10-16T19:03:05;17.00;99.90
24638;DHT22;12773;50.162;8.548;2022-10-16T19:05:52;16.90;99.90
24638;DHT22;12773;50.162;8.548;2022-10-16T19:08:39;16.90;99.90
24638;DHT22;12773;50.162;8.548;2022-10-16T19:11:27;16.90;99.90
24638;DHT22;12773;50.162;8.548;2022-10-16T19:14:16;17.00;99.90
24638;DHT22;12773;50.162;8.548;2022-10-16T19:17:05;17.00;99.90
24638;DHT22;12773;50.162;8.548;2022-10-16T19:19:52;17.10;99.90